This is the latest recevied weather packets stored in our database for station/object EB2EMZ-15. If no packets are shown the sender has not sent any weather packets the latest 10 day(s).
| Time | Temp. | Humidity | Pressure | Rain* | Wind** | Luminosity | Snow |
|---|---|---|---|---|---|---|---|
| 1777795523 | 27.22° C | 56% | 991.9 hPa | 0 mm | - | - | - |
| 1777795223 | 27.22° C | 57% | 991.9 hPa | 0 mm | - | - | - |
| 1777794923 | 26.67° C | 60% | 991.8 hPa | 0 mm | - | - | - |
| 1777794630 | 26.11° C | 63% | 991.8 hPa | 0 mm | - | - | - |
| 1777794323 | 25.56° C | 65% | 992 hPa | 0 mm | - | - | - |
| 1777793723 | 23.89° C | 69% | 991.8 hPa | 0 mm | - | - | - |
| 1777793425 | 22.78° C | 72% | 991.8 hPa | 0 mm | - | - | - |
| 1777793123 | 21.67° C | 74% | 991.9 hPa | 0 mm | - | - | - |
| 1777792825 | 20.56° C | 75% | 992 hPa | 0 mm | - | - | - |
| 1777792523 | 20° C | 76% | 992.1 hPa | 0 mm | - | - | - |
| 1777792225 | 20° C | 74% | 992.2 hPa | 0 mm | - | - | - |
| 1777791923 | 20.56° C | 74% | 992.2 hPa | 0 mm | - | - | - |
| 1777791622 | 20.56° C | 75% | 992.1 hPa | 0 mm | - | - | - |
| 1777791322 | 20.56° C | 76% | 992.2 hPa | 0 mm | - | - | - |
| 1777791025 | 20° C | 79% | 992 hPa | 0 mm | - | - | - |
| 1777790722 | 18.89° C | 82% | 992.2 hPa | 0 mm | - | - | - |
| 1777790425 | 17.78° C | 84% | 992.1 hPa | 0 mm | - | - | - |
| 1777790123 | 16.67° C | 86% | 992.3 hPa | 0 mm | - | - | - |
| 1777789825 | 16.11° C | 86% | 992.4 hPa | 0 mm | - | - | - |
| 1777789523 | 16.67° C | 86% | 992.2 hPa | 0 mm | - | - | - |
| 1777789225 | 16.67° C | 87% | 992.3 hPa | 0 mm | - | - | - |
| 1777788923 | 16.11° C | 88% | 992.3 hPa | 0 mm | - | - | - |
| 1777788625 | 15.56° C | 89% | 992.2 hPa | 0 mm | - | - | - |
| 1777788323 | 13.89° C | 90% | 992.2 hPa | 0 mm | - | - | - |
| 1777788023 | 13.33° C | 90% | 992.3 hPa | 0 mm | - | - | - |
* Rain latest hour (hover to see other rain measurements)
** Current wind speed in m/s (hover to see current wind gust speed)